Time;durP1;ratioP1;P1;durP2;ratioP2;P2;SDS_P1;SDS_P2;PMS_P1;PMS_P2;Temp;Humidity;BMP_temperature;BMP_pressure;BME280_temperature;BME280_humidity;BME280_pressure;Samples;Min_cycle;Max_cycle;Signal;HPM_P1;HPM_P2
2023/07/25 00:00:57;;;;;;;9.50;7.60;;;18.20;92.80;;;;;;4981490;28;20121;-72
2023/07/25 00:03:23;;;;;;;9.50;7.57;;;18.20;92.80;;;;;;4979922;28;20046;-71
2023/07/25 00:05:49;;;;;;;9.80;8.35;;;18.20;92.60;;;;;;4981914;28;20513;-72
2023/07/25 00:08:16;;;;;;;11.32;7.85;;;18.20;92.70;;;;;;4980083;28;20038;-73
2023/07/25 00:10:42;;;;;;;11.93;8.57;;;18.20;92.80;;;;;;4981941;28;20030;-72
2023/07/25 00:13:07;;;;;;;10.88;8.43;;;18.10;93.00;;;;;;4981175;28;20046;-72
2023/07/25 00:15:33;;;;;;;9.35;8.15;;;18.10;93.10;;;;;;4981707;28;20034;-72
2023/07/25 00:17:59;;;;;;;12.45;9.07;;;18.00;93.20;;;;;;4981188;28;20133;-72
2023/07/25 00:20:26;;;;;;;14.25;8.98;;;18.00;93.30;;;;;;4981232;28;20053;-72
2023/07/25 00:22:52;;;;;;;10.63;8.27;;;18.00;93.40;;;;;;4982846;28;20405;-72
2023/07/25 00:25:18;;;;;;;11.57;9.70;;;18.00;93.50;;;;;;4981696;28;20181;-72
2023/07/25 00:27:44;;;;;;;12.82;9.00;;;18.00;93.60;;;;;;4979833;28;20136;-72
2023/07/25 00:30:10;;;;;;;14.60;8.88;;;17.90;93.60;;;;;;4980794;28;20499;-72
2023/07/25 00:32:38;;;;;;;11.85;9.20;;;18.00;93.40;;;;;;4980651;28;20139;-72
2023/07/25 00:35:05;;;;;;;11.63;9.45;;;17.80;93.50;;;;;;4996066;28;20034;-72
2023/07/25 00:37:31;;;;;;;14.68;10.43;;;17.80;93.70;;;;;;4978289;28;20030;-72
2023/07/25 00:39:57;;;;;;;14.07;10.35;;;17.80;93.90;;;;;;4979867;28;20039;-72
2023/07/25 00:42:24;;;;;;;15.18;10.48;;;17.70;94.20;;;;;;4981514;28;20038;-72
2023/07/25 00:44:50;;;;;;;12.40;10.68;;;17.70;94.20;;;;;;4987779;28;20035;-72
2023/07/25 00:47:17;;;;;;;15.55;11.90;;;17.80;94.00;;;;;;4984598;28;20034;-72
2023/07/25 00:49:45;;;;;;;18.02;15.27;;;17.80;94.00;;;;;;4984720;28;20580;-73
2023/07/25 00:52:11;;;;;;;20.63;16.42;;;17.90;93.90;;;;;;4982964;28;20046;-73
2023/07/25 00:54:48;;;;;;;20.33;15.60;;;17.90;93.90;;;;;;4983693;28;20030;-73
2023/07/25 00:57:19;;;;;;;19.30;15.00;;;18.00;93.70;;;;;;4987279;28;20493;-73
2023/07/25 00:59:46;;;;;;;19.33;14.55;;;17.80;94.00;;;;;;4982200;28;20555;-73
2023/07/25 01:02:13;;;;;;;17.80;14.15;;;17.90;94.00;;;;;;4999066;28;20037;-73
2023/07/25 01:04:40;;;;;;;17.90;13.02;;;17.90;93.90;;;;;;4982782;28;20034;-74
2023/07/25 01:07:07;;;;;;;16.85;12.77;;;17.80;94.10;;;;;;4982457;28;20370;-73
2023/07/25 01:09:40;;;;;;;17.83;12.40;;;17.90;94.00;;;;;;4983689;28;20058;-73
2023/07/25 01:12:08;;;;;;;18.63;11.75;;;17.90;94.00;;;;;;4983652;28;20034;-73
2023/07/25 01:14:34;;;;;;;15.02;11.63;;;17.90;94.30;;;;;;4982740;28;20037;-74
2023/07/25 01:17:06;;;;;;;13.13;11.32;;;17.80;94.40;;;;;;4984569;28;20042;-74
2023/07/25 01:19:34;;;;;;;15.27;11.15;;;17.80;94.60;;;;;;5014624;28;20439;-74
2023/07/25 01:22:00;;;;;;;14.43;11.85;;;17.80;94.50;;;;;;4980301;28;20043;-73
2023/07/25 01:24:26;;;;;;;14.15;11.32;;;17.80;94.40;;;;;;4986399;28;20037;-74
2023/07/25 01:26:52;;;;;;;13.65;10.57;;;17.90;94.60;;;;;;4981550;28;20053;-73
2023/07/25 01:29:18;;;;;;;14.07;10.63;;;17.80;94.40;;;;;;4981263;28;20041;-73
2023/07/25 01:31:44;;;;;;;12.73;10.05;;;17.90;94.50;;;;;;4982822;28;20039;-74
2023/07/25 01:34:10;;;;;;;14.63;10.20;;;17.80;94.60;;;;;;4983584;28;20770;-73
2023/07/25 01:36:36;;;;;;;16.42;11.13;;;17.80;94.70;;;;;;4983824;28;20043;-73
2023/07/25 01:39:02;;;;;;;13.30;10.45;;;17.80;94.70;;;;;;4982869;28;20034;-73
2023/07/25 01:41:28;;;;;;;15.68;11.50;;;17.80;94.80;;;;;;4982229;28;20038;-73
2023/07/25 01:43:54;;;;;;;17.38;11.70;;;17.80;94.70;;;;;;4996436;28;20085;-74
2023/07/25 01:46:20;;;;;;;19.17;11.52;;;17.80;94.70;;;;;;4982185;28;20034;-74
2023/07/25 01:48:46;;;;;;;16.45;12.75;;;17.80;94.80;;;;;;4982791;28;20119;-74
2023/07/25 01:51:12;;;;;;;15.20;11.30;;;17.80;94.70;;;;;;4986105;28;20034;-73
2023/07/25 01:53:38;;;;;;;14.60;11.95;;;17.80;94.80;;;;;;4985808;28;20077;-74
2023/07/25 01:56:04;;;;;;;14.88;12.00;;;17.80;95.10;;;;;;4982108;28;20042;-74
2023/07/25 01:58:29;;;;;;;17.50;11.77;;;17.80;94.70;;;;;;4980680;28;20129;-73
2023/07/25 02:00:59;;;;;;;17.20;12.27;;;17.80;94.60;;;;;;4980646;28;20035;-73
2023/07/25 02:03:26;;;;;;;17.23;12.10;;;17.80;94.80;;;;;;4983497;28;20030;-72
2023/07/25 02:05:52;;;;;;;18.92;12.55;;;17.70;95.00;;;;;;4983575;28;20116;-73
2023/07/25 02:08:18;;;;;;;18.98;13.18;;;17.70;95.10;;;;;;4982529;28;20034;-73
2023/07/25 02:10:44;;;;;;;18.70;12.32;;;17.70;95.10;;;;;;4983836;28;20112;-73
2023/07/25 02:13:10;;;;;;;17.08;12.10;;;17.70;95.10;;;;;;4979805;28;20544;-73
2023/07/25 02:15:37;;;;;;;15.38;11.82;;;17.70;95.40;;;;;;4980689;28;20485;-73
2023/07/25 02:18:03;;;;;;;17.08;11.70;;;17.70;95.50;;;;;;4981017;28;20105;-73
2023/07/25 02:20:31;;;;;;;15.98;11.90;;;17.80;95.00;;;;;;4981063;28;20039;-74
2023/07/25 02:22:57;;;;;;;19.55;13.23;;;17.70;95.20;;;;;;4984258;28;20038;-74
2023/07/25 02:25:25;;;;;;;16.25;12.23;;;17.70;95.30;;;;;;4980701;28;20501;-73
2023/07/25 02:27:51;;;;;;;17.13;12.23;;;17.70;95.20;;;;;;4980449;28;20461;-70
2023/07/25 02:30:17;;;;;;;14.73;10.38;;;17.70;95.40;;;;;;4980667;28;20065;-70
2023/07/25 02:32:43;;;;;;;14.40;9.93;;;17.90;94.70;;;;;;4983741;28;20488;-71
2023/07/25 02:35:09;;;;;;;13.38;9.23;;;18.10;94.50;;;;;;4981181;28;20046;-71
2023/07/25 02:37:35;;;;;;;11.90;8.65;;;18.20;94.40;;;;;;4982266;28;20039;-70
2023/07/25 02:40:00;;;;;;;14.75;8.85;;;18.30;94.10;;;;;;4980123;28;20038;-72
2023/07/25 02:42:26;;;;;;;13.10;9.13;;;18.30;94.00;;;;;;4981528;28;20587;-72
2023/07/25 02:44:52;;;;;;;13.23;9.00;;;18.40;94.10;;;;;;4969890;28;20117;-72
2023/07/25 02:47:18;;;;;;;12.65;8.35;;;18.50;93.90;;;;;;4982418;28;20069;-71
2023/07/25 02:49:44;;;;;;;10.98;8.18;;;18.50;93.80;;;;;;4983051;28;20061;-69
2023/07/25 02:52:10;;;;;;;14.20;8.63;;;18.60;93.70;;;;;;4981011;28;20081;-69
2023/07/25 02:54:36;;;;;;;9.68;7.82;;;18.60;93.60;;;;;;4983557;28;20464;-69
2023/07/25 02:57:02;;;;;;;8.82;7.47;;;18.70;93.50;;;;;;4984043;28;20034;-70
2023/07/25 02:59:29;;;;;;;10.50;7.78;;;18.80;93.50;;;;;;4983562;28;20074;-70
2023/07/25 03:01:55;;;;;;;8.88;7.93;;;18.80;93.30;;;;;;4981373;28;20034;-71
2023/07/25 03:04:21;;;;;;;11.38;7.57;;;18.90;93.20;;;;;;4978827;28;20049;-71
2023/07/25 03:06:47;;;;;;;17.35;7.63;;;18.90;93.10;;;;;;4982216;28;20088;-70
2023/07/25 03:09:13;;;;;;;11.25;7.90;;;19.00;93.00;;;;;;4981162;28;20400;-70
2023/07/25 03:11:39;;;;;;;10.45;7.47;;;19.00;92.90;;;;;;4980478;28;20494;-70
2023/07/25 03:14:05;;;;;;;11.32;7.30;;;19.00;92.80;;;;;;4981313;28;20070;-70
2023/07/25 03:16:31;;;;;;;7.70;6.90;;;19.10;92.80;;;;;;4977819;28;20056;-70
2023/07/25 03:18:57;;;;;;;8.18;6.55;;;19.10;92.70;;;;;;4980980;28;20129;-70
2023/07/25 03:21:23;;;;;;;10.65;7.10;;;19.20;92.70;;;;;;4979778;28;20100;-69
2023/07/25 03:23:49;;;;;;;11.25;7.65;;;19.20;92.60;;;;;;4978241;28;20037;-70
2023/07/25 03:26:15;;;;;;;8.15;6.90;;;19.20;92.50;;;;;;4980550;28;20194;-69
2023/07/25 03:28:41;;;;;;;7.80;6.88;;;19.30;92.60;;;;;;4981268;28;20045;-69
2023/07/25 03:31:07;;;;;;;12.40;6.93;;;19.30;92.50;;;;;;4981979;28;20505;-70
2023/07/25 03:33:33;;;;;;;8.52;6.47;;;19.30;92.40;;;;;;4980983;28;20045;-69
2023/07/25 03:35:59;;;;;;;7.57;6.03;;;19.30;92.30;;;;;;4980803;28;20395;-70
2023/07/25 03:38:25;;;;;;;8.60;6.63;;;19.30;92.30;;;;;;4979754;28;20030;-70
2023/07/25 03:40:51;;;;;;;8.90;6.80;;;19.40;92.40;;;;;;4979663;28;20485;-70
2023/07/25 03:43:16;;;;;;;7.70;6.90;;;19.40;92.40;;;;;;4980334;28;20034;-71
2023/07/25 03:45:42;;;;;;;7.32;6.25;;;19.40;92.30;;;;;;4980068;28;20030;-70
2023/07/25 03:48:09;;;;;;;7.40;6.13;;;19.40;92.30;;;;;;5009749;28;20065;-71
2023/07/25 03:50:35;;;;;;;7.70;6.10;;;19.50;92.30;;;;;;5009764;28;20070;-71
2023/07/25 03:53:04;;;;;;;7.30;5.75;;;19.50;92.20;;;;;;4978668;28;20132;-70
2023/07/25 03:55:30;;;;;;;7.43;5.90;;;19.50;92.40;;;;;;4979267;28;20030;-70
2023/07/25 03:57:56;;;;;;;6.22;5.07;;;19.50;92.10;;;;;;4979243;28;20498;-70
2023/07/25 04:00:22;;;;;;;7.63;6.20;;;19.60;92.10;;;;;;4977447;28;20034;-69
2023/07/25 04:02:48;;;;;;;8.38;5.43;;;19.60;92.00;;;;;;4984495;28;20037;-68
2023/07/25 04:05:15;;;;;;;7.00;5.43;;;19.60;91.90;;;;;;4979581;28;20416;-68
2023/07/25 04:07:41;;;;;;;6.68;5.05;;;19.60;91.90;;;;;;4980633;28;20189;-68
2023/07/25 04:10:07;;;;;;;6.95;5.55;;;19.70;92.00;;;;;;4980261;28;20370;-68
2023/07/25 04:12:33;;;;;;;7.30;5.70;;;19.70;91.90;;;;;;4980805;28;20045;-68
2023/07/25 04:14:59;;;;;;;7.88;4.90;;;19.70;91.80;;;;;;4980418;28;20033;-68
2023/07/25 04:17:25;;;;;;;8.25;5.82;;;19.70;91.80;;;;;;4981308;28;20046;-68
2023/07/25 04:19:51;;;;;;;6.40;5.75;;;19.70;91.80;;;;;;4981650;28;20113;-68
2023/07/25 04:22:17;;;;;;;7.70;5.75;;;19.70;91.70;;;;;;4983090;28;20134;-68
2023/07/25 04:24:43;;;;;;;9.38;5.85;;;19.80;91.80;;;;;;4982459;28;20135;-68
2023/07/25 04:27:09;;;;;;;6.78;5.30;;;19.80;91.90;;;;;;5014464;28;20027;-68
2023/07/25 04:29:35;;;;;;;7.70;5.75;;;19.90;92.10;;;;;;4985802;28;20537;-69
2023/07/25 04:32:00;;;;;;;7.90;6.15;;;20.00;92.00;;;;;;4981481;28;20046;-68
2023/07/25 04:34:26;;;;;;;9.70;6.28;;;20.10;92.00;;;;;;4986470;28;20037;-68
2023/07/25 04:36:52;;;;;;;8.50;5.68;;;20.10;91.90;;;;;;4983326;28;20030;-69
2023/07/25 04:39:18;;;;;;;8.10;6.20;;;20.20;91.90;;;;;;4986750;28;20197;-69
2023/07/25 04:41:44;;;;;;;7.32;6.07;;;20.30;91.90;;;;;;4981011;28;20108;-69
2023/07/25 04:44:11;;;;;;;8.02;5.95;;;20.50;91.90;;;;;;4982288;28;20102;-69
2023/07/25 04:46:37;;;;;;;7.82;6.05;;;20.60;91.80;;;;;;4981631;28;20509;-69
2023/07/25 04:49:03;;;;;;;7.55;6.03;;;20.70;91.70;;;;;;4982167;28;20058;-69
2023/07/25 04:51:29;;;;;;;9.70;5.93;;;20.80;91.60;;;;;;5013282;28;20034;-70
2023/07/25 04:53:55;;;;;;;8.02;6.43;;;20.80;91.60;;;;;;4986604;28;20100;-69
2023/07/25 04:56:20;;;;;;;8.48;6.47;;;20.90;91.50;;;;;;4997048;28;20433;-67
2023/07/25 04:58:46;;;;;;;7.50;6.63;;;20.90;91.30;;;;;;4982156;28;20038;-68
2023/07/25 05:01:12;;;;;;;7.95;6.47;;;21.00;91.20;;;;;;4998356;28;20033;-68
2023/07/25 05:03:38;;;;;;;8.20;6.40;;;21.00;91.10;;;;;;4982457;28;20030;-68
2023/07/25 05:06:04;;;;;;;7.75;6.28;;;21.00;91.00;;;;;;4984535;28;20380;-68
2023/07/25 05:08:30;;;;;;;7.93;6.20;;;21.10;91.10;;;;;;4982287;28;20416;-68
2023/07/25 05:10:56;;;;;;;5.93;5.38;;;21.20;91.10;;;;;;4982582;28;20624;-68
2023/07/25 05:13:22;;;;;;;7.47;5.60;;;21.40;91.00;;;;;;4982963;28;20096;-68
2023/07/25 05:15:48;;;;;;;6.53;5.85;;;21.50;90.80;;;;;;4980784;28;20042;-68
2023/07/25 05:18:14;;;;;;;6.85;4.97;;;21.70;90.70;;;;;;4983855;28;20058;-69
2023/07/25 05:20:40;;;;;;;5.30;4.80;;;22.00;90.20;;;;;;4981730;28;21316;-68
2023/07/25 05:23:06;;;;;;;5.85;4.85;;;22.30;89.30;;;;;;4981085;28;20045;-69
2023/07/25 05:25:32;;;;;;;5.60;5.10;;;22.40;88.70;;;;;;4983920;28;20510;-69
2023/07/25 05:27:58;;;;;;;5.88;4.70;;;22.40;88.90;;;;;;4982770;28;20038;-69
2023/07/25 05:30:24;;;;;;;5.43;4.72;;;22.40;88.70;;;;;;4983833;28;20038;-69
2023/07/25 05:32:50;;;;;;;6.43;4.88;;;22.50;88.90;;;;;;4982160;28;20049;-69
2023/07/25 05:35:16;;;;;;;7.55;4.70;;;22.50;89.60;;;;;;4982330;28;20074;-69
2023/07/25 05:37:42;;;;;;;5.95;4.90;;;22.60;88.60;;;;;;4982854;28;20121;-68
2023/07/25 05:40:08;;;;;;;5.80;5.30;;;22.60;88.40;;;;;;4980912;28;20550;-69
2023/07/25 05:42:34;;;;;;;5.88;5.18;;;22.60;88.30;;;;;;4981436;28;20542;-68
2023/07/25 05:45:00;;;;;;;8.23;5.55;;;22.60;88.20;;;;;;4983290;28;20449;-68
2023/07/25 05:47:27;;;;;;;8.93;5.60;;;22.70;88.10;;;;;;4982419;28;20129;-69
2023/07/25 05:49:54;;;;;;;5.38;4.88;;;22.80;87.90;;;;;;4982748;28;20034;-68
2023/07/25 05:52:20;;;;;;;5.32;4.82;;;22.80;87.80;;;;;;4982721;28;20074;-68
2023/07/25 05:54:46;;;;;;;6.22;5.63;;;22.80;87.50;;;;;;4983265;28;20113;-68
2023/07/25 05:57:12;;;;;;;6.32;5.72;;;22.80;87.90;;;;;;4982274;28;20121;-69
2023/07/25 05:59:40;;;;;;;7.97;5.45;;;22.80;87.40;;;;;;4980529;28;20063;-68
2023/07/25 06:02:07;;;;;;;6.45;5.55;;;22.80;87.20;;;;;;4981105;28;20505;-68
2023/07/25 06:04:33;;;;;;;7.75;5.18;;;22.80;87.10;;;;;;4979782;28;20084;-68
2023/07/25 06:06:59;;;;;;;5.78;5.15;;;22.80;87.10;;;;;;4982853;28;20104;-68
2023/07/25 06:09:25;;;;;;;5.93;5.20;;;22.80;87.00;;;;;;4983861;28;20452;-68
2023/07/25 06:11:52;;;;;;;6.45;5.32;;;22.90;87.30;;;;;;4983599;28;20030;-68
2023/07/25 06:14:18;;;;;;;5.05;4.57;;;22.90;87.10;;;;;;4981116;28;20061;-68
2023/07/25 06:16:44;;;;;;;5.70;5.03;;;23.00;86.90;;;;;;4981985;28;20070;-68
2023/07/25 06:19:10;;;;;;;5.18;4.43;;;23.10;86.70;;;;;;4984307;28;20363;-69
2023/07/25 06:21:36;;;;;;;5.25;4.38;;;23.20;86.40;;;;;;4979998;28;20049;-68
2023/07/25 06:24:02;;;;;;;4.75;4.35;;;23.30;86.10;;;;;;4983878;28;20501;-69
2023/07/25 06:26:28;;;;;;;6.28;4.18;;;23.40;85.90;;;;;;4982647;28;20038;-69
2023/07/25 06:28:54;;;;;;;6.13;4.50;;;23.40;86.00;;;;;;4981921;28;20038;-69
2023/07/25 06:31:20;;;;;;;5.50;4.40;;;23.40;85.80;;;;;;4981766;28;20179;-68
2023/07/25 06:33:47;;;;;;;5.35;4.07;;;23.50;85.70;;;;;;4980742;28;20572;-69
2023/07/25 06:36:13;;;;;;;5.78;3.85;;;23.60;85.70;;;;;;4982993;28;20045;-68
2023/07/25 06:38:39;;;;;;;4.68;3.97;;;23.70;85.40;;;;;;4980611;28;20057;-69
2023/07/25 06:41:05;;;;;;;5.30;4.53;;;23.80;85.10;;;;;;4981504;28;20038;-67
2023/07/25 06:43:31;;;;;;;4.63;4.13;;;23.90;85.00;;;;;;4981519;28;20045;-68
2023/07/25 06:45:57;;;;;;;6.70;4.18;;;24.00;84.50;;;;;;4978647;28;20039;-68
2023/07/25 06:48:23;;;;;;;4.32;3.83;;;24.20;84.20;;;;;;4981943;28;20062;-68
2023/07/25 06:50:49;;;;;;;5.65;4.00;;;24.30;84.40;;;;;;4981322;28;20031;-68
2023/07/25 06:53:15;;;;;;;5.45;3.90;;;24.30;83.40;;;;;;4980368;28;20065;-68
2023/07/25 06:55:41;;;;;;;4.90;3.60;;;24.50;83.00;;;;;;4982722;28;20039;-68
2023/07/25 06:58:07;;;;;;;6.22;3.75;;;24.60;82.50;;;;;;4979491;28;20054;-68
2023/07/25 07:00:38;;;;;;;5.93;3.83;;;24.70;82.00;;;;;;4979515;28;20497;-68
2023/07/25 07:03:07;;;;;;;6.00;4.05;;;24.80;81.60;;;;;;4980386;28;20140;-68
2023/07/25 07:05:33;;;;;;;6.65;3.75;;;24.90;81.20;;;;;;4979707;28;20069;-69
2023/07/25 07:08:00;;;;;;;5.97;4.57;;;24.90;80.70;;;;;;4978884;28;20542;-68
2023/07/25 07:10:27;;;;;;;4.50;4.10;;;25.00;80.30;;;;;;4982266;28;20034;-68
2023/07/25 07:12:53;;;;;;;4.25;3.90;;;25.00;79.90;;;;;;4981300;28;20046;-68
2023/07/25 07:15:24;;;;;;;6.25;3.90;;;25.10;79.70;;;;;;4981046;28;20042;-68
2023/07/25 07:17:53;;;;;;;5.57;3.88;;;25.10;79.60;;;;;;4980631;28;20058;-68
2023/07/25 07:20:20;;;;;;;4.47;4.00;;;25.20;79.30;;;;;;4979802;28;20085;-68
2023/07/25 07:22:46;;;;;;;5.43;3.65;;;25.30;79.00;;;;;;4979918;28;20130;-68
2023/07/25 07:25:12;;;;;;;3.67;3.33;;;25.40;78.80;;;;;;4979787;28;20161;-68
2023/07/25 07:27:38;;;;;;;4.05;3.72;;;25.50;78.60;;;;;;4979583;28;20042;-68
2023/07/25 07:30:05;;;;;;;3.95;3.40;;;25.50;78.20;;;;;;4981189;28;20398;-68
2023/07/25 07:32:31;;;;;;;5.45;3.60;;;25.60;78.00;;;;;;4980562;28;20077;-69
2023/07/25 07:34:57;;;;;;;4.68;3.63;;;25.70;77.60;;;;;;4982024;28;20066;-68
2023/07/25 07:37:23;;;;;;;5.82;4.03;;;25.70;77.30;;;;;;4982803;28;20065;-68
2023/07/25 07:39:48;;;;;;;4.28;3.80;;;25.70;77.00;;;;;;4980403;28;20117;-69
2023/07/25 07:42:14;;;;;;;5.25;3.88;;;25.80;76.90;;;;;;4982431;28;20042;-68
2023/07/25 07:44:40;;;;;;;5.57;3.85;;;25.80;76.60;;;;;;4980145;28;20058;-68
2023/07/25 07:47:06;;;;;;;4.35;3.58;;;25.80;76.40;;;;;;4978495;28;20081;-68
2023/07/25 07:49:34;;;;;;;4.03;3.47;;;25.90;76.20;;;;;;4980159;28;20042;-68
2023/07/25 07:52:00;;;;;;;5.80;3.92;;;25.90;76.10;;;;;;4983781;28;20390;-68
2023/07/25 07:54:26;;;;;;;3.70;3.40;;;25.90;75.80;;;;;;4985261;28;20407;-68
2023/07/25 07:56:51;;;;;;;5.82;3.55;;;26.00;75.60;;;;;;4985228;28;20027;-68
2023/07/25 07:59:17;;;;;;;5.57;3.38;;;26.00;75.30;;;;;;4986909;28;20045;-68
2023/07/25 08:01:43;;;;;;;4.03;3.60;;;26.00;75.10;;;;;;4986793;28;20058;-68
2023/07/25 08:04:10;;;;;;;4.75;3.58;;;26.10;75.00;;;;;;4994304;28;20121;-68
2023/07/25 08:06:37;;;;;;;5.78;4.00;;;26.10;74.80;;;;;;4990075;28;20081;-71
2023/07/25 08:09:03;;;;;;;4.80;3.90;;;26.10;74.80;;;;;;4991688;28;20037;-70
2023/07/25 08:11:28;;;;;;;6.45;3.85;;;26.10;74.50;;;;;;4990358;28;20036;-76
2023/07/25 08:13:54;;;;;;;6.20;3.60;;;26.00;70.90;;;;;;4992301;28;20420;-77
2023/07/25 08:16:20;;;;;;;4.72;4.05;;;26.00;74.00;;;;;;4991165;28;20126;-76
2023/07/25 08:18:46;;;;;;;6.30;3.80;;;25.90;70.80;;;;;;4990767;28;20038;-73
2023/07/25 08:21:12;;;;;;;3.70;3.40;;;25.90;72.90;;;;;;4994127;28;20073;-73
2023/07/25 08:23:38;;;;;;;5.63;4.05;;;25.90;73.70;;;;;;4991035;28;20133;-74
2023/07/25 08:26:04;;;;;;;4.45;3.47;;;25.90;70.60;;;;;;4988983;28;20581;-73
2023/07/25 08:28:30;;;;;;;7.60;4.00;;;25.90;70.80;;;;;;4993555;28;20046;-73
2023/07/25 08:31:00;;;;;;;6.45;3.58;;;25.90;70.00;;;;;;4990890;28;20038;-73
2023/07/25 08:33:31;;;;;;;6.40;3.50;;;25.90;71.40;;;;;;4989977;28;20046;-74
2023/07/25 08:35:57;;;;;;;4.90;3.50;;;25.90;70.70;;;;;;4990065;28;20030;-74
2023/07/25 08:38:24;;;;;;;4.43;3.10;;;25.90;69.50;;;;;;4992270;28;20035;-74
2023/07/25 08:41:01;;;;;;;4.35;3.58;;;25.80;69.90;;;;;;4993897;28;20045;-75
2023/07/25 08:43:30;;;;;;;4.68;3.50;;;25.80;68.20;;;;;;4993193;28;20050;-74
2023/07/25 08:46:02;;;;;;;5.38;4.13;;;25.70;67.90;;;;;;4990086;28;20030;-72
2023/07/25 08:48:30;;;;;;;6.07;3.97;;;25.60;67.20;;;;;;4993170;28;20022;-72
2023/07/25 08:50:58;;;;;;;6.88;4.20;;;25.50;68.10;;;;;;4991131;28;20030;-72
2023/07/25 08:53:26;;;;;;;4.75;3.90;;;25.60;68.60;;;;;;4992010;28;20034;-73
2023/07/25 08:55:53;;;;;;;4.38;3.95;;;25.50;69.20;;;;;;4988398;28;20045;-72
2023/07/25 08:58:19;;;;;;;4.88;3.85;;;25.50;69.70;;;;;;4990849;28;20054;-73
2023/07/25 09:00:46;;;;;;;5.13;3.90;;;25.40;68.50;;;;;;4983913;28;20414;-73
2023/07/25 09:03:12;;;;;;;5.28;4.30;;;25.40;69.20;;;;;;4981790;28;20395;-73
2023/07/25 09:05:38;;;;;;;4.85;4.10;;;25.40;69.10;;;;;;4982878;28;20039;-74
2023/07/25 09:08:04;;;;;;;6.55;4.25;;;25.40;69.20;;;;;;4984123;28;20030;-74
2023/07/25 09:10:30;;;;;;;6.03;4.05;;;25.40;69.00;;;;;;5013926;28;20141;-73
2023/07/25 09:12:56;;;;;;;5.50;4.22;;;25.40;69.40;;;;;;4980704;28;20099;-72
2023/07/25 09:15:23;;;;;;;4.28;3.60;;;25.40;69.70;;;;;;4981746;28;20089;-74
2023/07/25 09:17:52;;;;;;;6.80;4.40;;;25.40;69.40;;;;;;4984318;28;20157;-74
2023/07/25 09:20:18;;;;;;;7.13;4.10;;;25.40;67.90;;;;;;4982305;28;20046;-74
2023/07/25 09:22:49;;;;;;;4.68;3.60;;;25.40;68.50;;;;;;4982249;28;20033;-73
2023/07/25 09:25:15;;;;;;;5.82;4.43;;;25.40;69.30;;;;;;5015647;28;20030;-72
2023/07/25 09:27:48;;;;;;;6.10;4.15;;;25.40;69.30;;;;;;4982728;28;20034;-74
2023/07/25 09:30:14;;;;;;;6.53;4.07;;;25.30;69.20;;;;;;4982369;28;20022;-74
2023/07/25 09:32:49;;;;;;;7.65;4.47;;;25.30;69.50;;;;;;4982454;28;20101;-74
2023/07/25 09:35:15;;;;;;;5.47;4.30;;;25.30;69.10;;;;;;4983595;28;20030;-74
2023/07/25 09:37:41;;;;;;;7.57;4.80;;;25.20;69.10;;;;;;4981656;28;21149;-73
2023/07/25 09:40:11;;;;;;;5.78;3.85;;;25.30;69.60;;;;;;4982073;28;20042;-73
2023/07/25 09:42:42;;;;;;;5.93;4.20;;;25.20;69.00;;;;;;4981258;28;20043;-75
2023/07/25 09:45:13;;;;;;;9.40;4.10;;;25.30;69.60;;;;;;4984270;28;20045;-75
2023/07/25 09:47:39;;;;;;;4.65;4.18;;;25.30;69.50;;;;;;4981378;28;20064;-75
2023/07/25 09:50:05;;;;;;;4.88;4.15;;;25.30;68.10;;;;;;4982350;28;20064;-75
2023/07/25 09:52:42;;;;;;;4.75;4.35;;;25.20;67.80;;;;;;4984073;28;20045;-74
2023/07/25 09:55:09;;;;;;;4.53;4.10;;;25.20;68.60;;;;;;4969723;28;20097;-78
2023/07/25 09:57:35;;;;;;;7.22;4.00;;;25.30;68.90;;;;;;4980762;28;20476;-75
2023/07/25 10:00:06;;;;;;;6.03;4.13;;;25.30;69.60;;;;;;4981590;28;20121;-78
2023/07/25 10:02:33;;;;;;;5.75;4.28;;;25.30;69.70;;;;;;4984413;28;20414;-77
2023/07/25 10:05:00;;;;;;;6.03;4.38;;;25.40;70.30;;;;;;4982326;28;20039;-77
2023/07/25 10:07:26;;;;;;;7.72;4.07;;;25.40;69.80;;;;;;4980783;28;20054;-74
2023/07/25 10:09:54;;;;;;;5.55;4.30;;;25.50;70.60;;;;;;4979934;28;20035;-78
2023/07/25 10:12:20;;;;;;;7.30;4.07;;;25.40;69.40;;;;;;4980555;28;20505;-74
2023/07/25 10:14:46;;;;;;;9.30;4.93;;;25.40;70.00;;;;;;4982371;28;20033;-74
2023/07/25 10:17:12;;;;;;;8.18;4.20;;;25.40;69.80;;;;;;4980225;28;20113;-74
2023/07/25 10:19:56;;;;;;;4.70;4.03;;;25.40;70.30;;;;;;4982508;28;20133;-72
2023/07/25 10:22:35;;;;;;;23.13;18.98;;;25.40;69.60;;;;;;4981946;28;20039;-73
2023/07/25 10:25:02;;;;;;;9.88;7.72;;;25.40;69.70;;;;;;4980157;28;20421;-74
2023/07/25 10:27:28;;;;;;;6.63;5.45;;;25.40;69.60;;;;;;4981523;28;20042;-74
2023/07/25 10:30:02;;;;;;;8.10;5.22;;;25.50;69.00;;;;;;4982043;28;20117;-74
2023/07/25 10:32:44;;;;;;;7.22;5.15;;;25.40;69.10;;;;;;4982972;28;20309;-74
2023/07/25 10:35:10;;;;;;;5.65;4.32;;;25.50;69.50;;;;;;4980585;28;20559;-73
2023/07/25 10:37:44;;;;;;;5.15;4.65;;;25.50;69.20;;;;;;4996722;28;20488;-74
2023/07/25 10:40:19;;;;;;;6.57;4.68;;;25.50;68.70;;;;;;4980574;28;20030;-74
2023/07/25 10:42:56;;;;;;;;;;;25.40;68.50;;;;;;4984338;28;20038;-74
2023/07/25 10:45:29;;;;;;;7.00;4.70;;;25.40;68.50;;;;;;4979811;28;19922;-73
2023/07/25 10:47:58;;;;;;;5.22;4.72;;;25.40;67.90;;;;;;4982399;28;20027;-74
2023/07/25 10:50:45;;;;;;;8.88;4.85;;;25.40;68.80;;;;;;4980434;28;20530;-74
2023/07/25 10:53:22;;;;;;;5.40;4.90;;;25.30;68.00;;;;;;4980957;28;20042;-74
2023/07/25 10:56:03;;;;;;;5.80;4.55;;;25.30;68.30;;;;;;4980850;28;20452;-74
2023/07/25 10:59:00;;;;;;;6.97;5.00;;;25.40;68.80;;;;;;4980184;28;20081;-74
2023/07/25 11:02:02;;;;;;;6.13;5.05;;;25.40;68.60;;;;;;4982466;28;20038;-74
2023/07/25 11:04:30;;;;;;;5.40;4.55;;;25.30;67.30;;;;;;4970647;28;20034;-74
2023/07/25 11:07:11;;;;;;;4.82;4.28;;;25.30;67.40;;;;;;4981337;28;20030;-74
2023/07/25 11:09:42;;;;;;;6.28;4.90;;;25.30;67.00;;;;;;4982103;28;20089;-73
2023/07/25 11:12:10;;;;;;;6.75;4.60;;;25.40;67.70;;;;;;4979796;28;20428;-73
2023/07/25 11:14:44;;;;;;;5.35;4.68;;;25.40;68.00;;;;;;4980311;28;20085;-74
2023/07/25 11:17:13;;;;;;;6.35;4.70;;;25.50;68.40;;;;;;4979468;28;20133;-73
2023/07/25 11:19:39;;;;;;;5.95;5.35;;;25.50;68.50;;;;;;4980170;28;20183;-74
2023/07/25 11:22:10;;;;;;;5.93;4.78;;;25.50;67.20;;;;;;4980778;28;20113;-73
2023/07/25 11:24:48;;;;;;;5.18;4.55;;;25.40;67.50;;;;;;4980548;28;20031;-73
2023/07/25 11:27:14;;;;;;;6.47;4.97;;;25.40;67.10;;;;;;4981869;28;20022;-73
2023/07/25 11:29:41;;;;;;;7.97;4.68;;;25.40;67.80;;;;;;4980373;28;20084;-73
2023/07/25 11:32:07;;;;;;;5.32;4.82;;;25.40;68.30;;;;;;4979952;28;20034;-73
2023/07/25 11:34:33;;;;;;;6.70;5.13;;;25.40;68.30;;;;;;4978656;28;20125;-73
2023/07/25 11:36:59;;;;;;;7.07;4.70;;;25.40;67.50;;;;;;4979522;28;20122;-75
2023/07/25 11:39:25;;;;;;;5.18;4.78;;;25.40;67.80;;;;;;4981373;28;20031;-72
2023/07/25 11:41:51;;;;;;;4.95;4.47;;;25.30;67.50;;;;;;4980811;28;20085;-73
2023/07/25 11:44:19;;;;;;;5.53;4.72;;;25.30;68.30;;;;;;4978754;28;20118;-73
2023/07/25 11:46:50;;;;;;;4.82;4.43;;;25.20;66.50;;;;;;4977155;28;20417;-73
2023/07/25 11:49:17;;;;;;;5.07;4.35;;;25.20;67.30;;;;;;4981684;28;20031;-73
2023/07/25 11:51:44;;;;;;;5.18;4.78;;;25.20;67.20;;;;;;4978562;28;20072;-74
2023/07/25 11:54:11;;;;;;;6.20;4.47;;;25.20;68.30;;;;;;4979600;28;20785;-74
2023/07/25 11:56:37;;;;;;;5.30;4.80;;;25.20;67.60;;;;;;4979940;28;20042;-74
2023/07/25 11:59:03;;;;;;;6.80;4.90;;;25.30;67.00;;;;;;4979535;28;20058;-75
2023/07/25 12:01:32;;;;;;;5.60;4.72;;;25.20;66.40;;;;;;4978364;28;20058;-74
2023/07/25 12:04:01;;;;;;;5.85;5.28;;;25.30;66.30;;;;;;4980022;28;20467;-73
2023/07/25 12:06:31;;;;;;;4.70;4.18;;;25.20;65.40;;;;;;4979495;28;20039;-74
2023/07/25 12:08:59;;;;;;;5.85;5.05;;;25.20;66.20;;;;;;4980755;28;20037;-75
2023/07/25 12:11:25;;;;;;;5.07;4.57;;;25.20;66.40;;;;;;4975613;28;20134;-74
2023/07/25 12:13:54;;;;;;;7.90;5.28;;;25.20;66.30;;;;;;4981511;28;20138;-75
2023/07/25 12:16:23;;;;;;;6.78;5.20;;;25.20;66.00;;;;;;4978112;28;20141;-76
2023/07/25 12:18:52;;;;;;;7.28;4.97;;;25.20;66.80;;;;;;4978334;28;20982;-76
2023/07/25 12:21:29;;;;;;;7.55;5.15;;;25.20;67.20;;;;;;4978743;28;20054;-76
2023/07/25 12:23:58;;;;;;;7.93;5.00;;;25.20;67.50;;;;;;4981110;28;20037;-76
2023/07/25 12:26:24;;;;;;;6.28;5.38;;;25.20;67.60;;;;;;4980317;28;20034;-76
2023/07/25 12:28:51;;;;;;;6.68;5.07;;;25.20;67.20;;;;;;4979127;28;20513;-77
2023/07/25 12:31:17;;;;;;;9.30;5.47;;;25.20;67.50;;;;;;4978794;28;20035;-77
2023/07/25 12:33:44;;;;;;;6.25;5.05;;;25.20;68.30;;;;;;4980264;28;20053;-76
2023/07/25 12:36:11;;;;;;;6.07;5.40;;;25.30;69.10;;;;;;4979745;28;20030;-77
2023/07/25 12:38:37;;;;;;;6.80;5.40;;;25.30;68.20;;;;;;4982183;28;20066;-78
2023/07/25 12:41:03;;;;;;;6.03;5.18;;;25.20;68.10;;;;;;4982141;28;20046;-77
2023/07/25 12:43:30;;;;;;;6.32;5.10;;;25.20;67.00;;;;;;4982088;28;20465;-76